Time;durP1;ratioP1;P1;durP2;ratioP2;P2;SDS_P1;SDS_P2;PMS_P1;PMS_P2;Temp;Humidity;BMP_temperature;BMP_pressure;BME280_temperature;BME280_humidity;BME280_pressure;Samples;Min_cycle;Max_cycle;Signal;HPM_P1;HPM_P2
2022/08/16 00:01:43;;;;;;;9.40;6.07;;;22.70;99.90;;;;;;4954821;28;20134;-75
2022/08/16 00:04:08;;;;;;;12.43;6.38;;;22.70;99.90;;;;;;4955002;28;20581;-76
2022/08/16 00:06:34;;;;;;;12.15;6.80;;;22.70;99.90;;;;;;4954957;28;20027;-76
2022/08/16 00:09:00;;;;;;;11.85;6.13;;;22.70;99.90;;;;;;4954910;28;20422;-76
2022/08/16 00:11:26;;;;;;;9.57;6.22;;;22.70;99.90;;;;;;4954806;28;20039;-76
2022/08/16 00:13:52;;;;;;;9.45;6.45;;;22.70;99.90;;;;;;4954303;28;20035;-75
2022/08/16 00:16:18;;;;;;;11.20;6.25;;;22.60;99.90;;;;;;4954988;28;20367;-75
2022/08/16 00:18:44;;;;;;;11.35;7.20;;;22.60;99.90;;;;;;4954595;28;20023;-75
2022/08/16 00:21:10;;;;;;;12.10;7.00;;;22.50;99.90;;;;;;4954688;28;20089;-75
2022/08/16 00:23:36;;;;;;;12.75;7.55;;;22.60;99.90;;;;;;4954042;28;20482;-61
2022/08/16 00:26:02;;;;;;;10.43;7.05;;;22.40;99.90;;;;;;4953594;28;20031;-75
2022/08/16 00:28:28;;;;;;;14.15;7.78;;;22.50;99.90;;;;;;4953246;28;20031;-74
2022/08/16 00:30:54;;;;;;;13.85;7.13;;;22.50;99.90;;;;;;4953681;28;20031;-67
2022/08/16 00:33:20;;;;;;;12.52;7.68;;;22.50;99.90;;;;;;4969544;28;20035;-75
2022/08/16 00:35:46;;;;;;;12.13;6.63;;;22.50;99.90;;;;;;4955309;28;20483;-66
2022/08/16 00:38:12;;;;;;;12.43;7.38;;;22.50;99.90;;;;;;4967775;28;20034;-72
2022/08/16 00:40:42;;;;;;;16.02;7.57;;;22.40;99.90;;;;;;4965871;28;20031;-74
2022/08/16 00:43:38;;;;;;;12.00;6.45;;;22.40;99.90;;;;;;4950778;28;20023;-74
2022/08/16 00:46:10;;;;;;;13.13;7.35;;;22.40;99.90;;;;;;4953220;28;20428;-75
2022/08/16 00:48:36;;;;;;;13.43;6.75;;;22.30;99.90;;;;;;4966587;28;20027;-74
2022/08/16 00:51:03;;;;;;;10.57;6.28;;;22.40;99.90;;;;;;4969653;28;20030;-68
2022/08/16 00:53:30;;;;;;;16.38;7.65;;;22.30;99.90;;;;;;4953716;28;20481;-73
2022/08/16 00:55:58;;;;;;;12.20;6.90;;;22.30;99.90;;;;;;4970225;28;20098;-74
2022/08/16 00:58:28;;;;;;;13.30;7.40;;;22.30;99.90;;;;;;4969719;28;20033;-74
2022/08/16 01:00:54;;;;;;;11.98;8.43;;;22.20;99.90;;;;;;4970018;28;20023;-69
2022/08/16 01:03:23;;;;;;;12.65;7.38;;;22.20;99.90;;;;;;4969720;28;20054;-68
2022/08/16 01:05:49;;;;;;;12.90;8.00;;;22.10;99.90;;;;;;4953682;28;20023;-74
2022/08/16 01:08:20;;;;;;;14.45;7.97;;;22.10;99.90;;;;;;4969662;28;20069;-74
2022/08/16 01:10:46;;;;;;;14.43;7.72;;;22.10;99.90;;;;;;4953854;28;20035;-74
2022/08/16 01:13:17;;;;;;;14.57;7.20;;;22.00;99.90;;;;;;4969456;28;20039;-75
2022/08/16 01:15:48;;;;;;;13.93;7.43;;;22.00;99.90;;;;;;4970830;28;20514;-73
2022/08/16 01:18:20;;;;;;;17.02;8.25;;;22.00;99.90;;;;;;4953880;28;20046;-73
2022/08/16 01:21:15;;;;;;;13.48;7.68;;;22.00;99.90;;;;;;4953223;28;20118;-70
2022/08/16 01:24:18;;;;;;;15.50;7.72;;;21.90;99.90;;;;;;4952733;28;20034;-75
2022/08/16 01:26:47;;;;;;;13.90;7.47;;;21.80;99.90;;;;;;4956444;28;20065;-74
2022/08/16 01:29:21;;;;;;;13.70;7.97;;;21.70;99.90;;;;;;4971257;28;20019;-75
2022/08/16 01:31:47;;;;;;;12.48;7.70;;;21.60;99.90;;;;;;4987203;28;20039;-73
2022/08/16 01:34:16;;;;;;;16.30;8.48;;;21.50;99.90;;;;;;4986820;28;20438;-74
2022/08/16 01:36:42;;;;;;;15.88;8.38;;;21.50;99.90;;;;;;4987159;28;20034;-75
2022/08/16 01:39:12;;;;;;;13.88;9.00;;;21.40;99.90;;;;;;4987044;28;20433;-73
2022/08/16 01:41:39;;;;;;;14.65;8.80;;;21.40;99.90;;;;;;4983406;28;20470;-75
2022/08/16 01:44:05;;;;;;;16.65;8.15;;;21.40;99.90;;;;;;4986574;28;20081;-75
2022/08/16 01:46:36;;;;;;;14.02;8.38;;;21.30;99.90;;;;;;4987344;28;20122;-75
2022/08/16 01:49:12;;;;;;;15.45;9.23;;;21.30;99.90;;;;;;4987031;28;20058;-74
2022/08/16 01:51:41;;;;;;;12.38;8.02;;;21.30;99.90;;;;;;4955302;28;20034;-74
2022/08/16 01:54:09;;;;;;;14.35;8.40;;;21.30;99.90;;;;;;4955979;28;20051;-74
2022/08/16 01:56:43;;;;;;;12.35;8.18;;;21.30;99.90;;;;;;4987371;28;20039;-75
2022/08/16 01:59:12;;;;;;;13.90;8.38;;;21.30;99.90;;;;;;4986631;28;20792;-73
2022/08/16 02:01:38;;;;;;;15.77;8.27;;;21.30;99.90;;;;;;4970512;28;20074;-74
2022/08/16 02:04:04;;;;;;;14.20;7.75;;;21.30;99.90;;;;;;4986954;28;20418;-75
2022/08/16 02:06:30;;;;;;;12.13;7.68;;;21.20;99.90;;;;;;4970538;28;20367;-75
2022/08/16 02:08:56;;;;;;;13.75;8.70;;;21.20;99.90;;;;;;4955655;28;20085;-74
2022/08/16 02:11:23;;;;;;;12.85;8.32;;;21.20;99.90;;;;;;4986684;28;20027;-73
2022/08/16 02:13:50;;;;;;;15.10;8.35;;;21.30;99.90;;;;;;4986783;28;20065;-70
2022/08/16 02:16:18;;;;;;;13.98;7.93;;;21.20;99.90;;;;;;4971864;28;20087;-76
2022/08/16 02:18:45;;;;;;;18.38;9.50;;;21.10;99.90;;;;;;4956967;28;20078;-74
2022/08/16 02:21:12;;;;;;;13.25;8.05;;;21.20;99.90;;;;;;4971570;28;20026;-75
2022/08/16 02:23:38;;;;;;;15.25;8.77;;;21.20;99.90;;;;;;4955552;28;20031;-75
2022/08/16 02:26:05;;;;;;;14.27;8.35;;;21.10;99.90;;;;;;4971443;28;20370;-75
2022/08/16 02:28:31;;;;;;;14.50;9.35;;;21.10;99.90;;;;;;4987547;28;20371;-73
2022/08/16 02:31:01;;;;;;;14.90;8.77;;;21.00;99.90;;;;;;4955359;29;20016;-75
2022/08/16 02:33:27;;;;;;;13.00;8.55;;;21.10;99.90;;;;;;4955584;28;20039;-75
2022/08/16 02:35:53;;;;;;;13.82;9.02;;;21.10;99.90;;;;;;4987208;28;20222;-74
2022/08/16 02:38:19;;;;;;;19.10;10.07;;;21.10;99.90;;;;;;4955349;29;20039;-75
2022/08/16 02:40:45;;;;;;;19.52;9.30;;;21.10;99.90;;;;;;4956383;28;20482;-75
2022/08/16 02:43:12;;;;;;;20.40;9.98;;;21.20;99.90;;;;;;4954899;29;20118;-75
2022/08/16 02:45:40;;;;;;;17.60;10.15;;;21.20;99.90;;;;;;4954968;28;20063;-74
2022/08/16 02:48:05;;;;;;;20.27;10.60;;;21.20;99.90;;;;;;4956328;28;20050;-75
2022/08/16 02:50:32;;;;;;;17.13;9.63;;;21.20;99.90;;;;;;4971009;28;20110;-75
2022/08/16 02:52:58;;;;;;;19.83;10.15;;;21.00;99.90;;;;;;4986999;28;20035;-75
2022/08/16 02:55:24;;;;;;;18.50;9.88;;;21.00;99.90;;;;;;4971069;28;20031;-75
2022/08/16 02:57:50;;;;;;;24.30;10.10;;;21.00;99.90;;;;;;4954980;28;20094;-75
2022/08/16 03:00:17;;;;;;;22.27;11.85;;;21.00;99.90;;;;;;4970750;28;20031;-75
2022/08/16 03:02:44;;;;;;;22.92;10.45;;;21.00;99.90;;;;;;4955525;28;20516;-75
2022/08/16 03:05:13;;;;;;;30.55;11.85;;;21.00;99.90;;;;;;4970507;28;20023;-75
2022/08/16 03:07:40;;;;;;;23.23;10.98;;;21.10;99.90;;;;;;4986868;28;20034;-74
2022/08/16 03:10:10;;;;;;;24.05;10.55;;;21.10;99.90;;;;;;4970324;28;20063;-75
2022/08/16 03:12:42;;;;;;;20.70;9.60;;;21.10;99.90;;;;;;4986743;28;20121;-71
2022/08/16 03:15:12;;;;;;;25.52;10.77;;;21.10;99.90;;;;;;4954224;28;20067;-75
2022/08/16 03:17:41;;;;;;;21.40;10.85;;;21.10;99.90;;;;;;4954081;29;20054;-70
2022/08/16 03:20:08;;;;;;;20.00;10.63;;;21.00;99.90;;;;;;4970252;28;20025;-73
2022/08/16 03:22:37;;;;;;;27.65;11.38;;;21.00;99.90;;;;;;4954467;28;20449;-70
2022/08/16 03:25:11;;;;;;;24.70;14.38;;;21.00;99.90;;;;;;4970438;28;20027;-74
2022/08/16 03:27:41;;;;;;;20.65;10.48;;;21.00;99.90;;;;;;4953947;28;20060;-73
2022/08/16 03:30:15;;;;;;;22.23;10.50;;;21.00;99.90;;;;;;4969959;28;20019;-75
2022/08/16 03:32:42;;;;;;;19.33;9.85;;;21.10;99.90;;;;;;4988374;28;20085;-74
2022/08/16 03:35:08;;;;;;;20.85;11.55;;;21.00;99.90;;;;;;4969177;28;20034;-74
2022/08/16 03:37:34;;;;;;;22.02;12.73;;;21.00;99.90;;;;;;4955324;28;20054;-71
2022/08/16 03:40:03;;;;;;;27.52;12.25;;;21.00;99.90;;;;;;4955018;28;20027;-75
2022/08/16 03:42:30;;;;;;;20.85;10.45;;;21.00;99.90;;;;;;4985814;28;20034;-75
2022/08/16 03:44:56;;;;;;;28.00;11.07;;;21.00;99.90;;;;;;4953615;28;20039;-75
2022/08/16 03:47:27;;;;;;;18.70;10.25;;;21.10;99.90;;;;;;4954428;28;20036;-75
2022/08/16 03:49:54;;;;;;;22.63;11.57;;;21.10;99.90;;;;;;4954884;28;20027;-75
2022/08/16 03:52:21;;;;;;;21.02;10.55;;;21.00;99.90;;;;;;4969614;28;20027;-74
2022/08/16 03:54:48;;;;;;;18.92;10.25;;;21.00;99.90;;;;;;4985445;28;20035;-75
2022/08/16 03:57:14;;;;;;;19.20;10.50;;;21.10;99.90;;;;;;4969402;28;20474;-75
2022/08/16 03:59:40;;;;;;;17.83;10.57;;;21.10;99.90;;;;;;4954225;28;20563;-72
2022/08/16 04:02:11;;;;;;;19.13;10.40;;;21.30;99.90;;;;;;4969063;28;20038;-75
2022/08/16 04:04:38;;;;;;;21.17;9.90;;;21.50;99.90;;;;;;4958745;28;20042;-72
2022/08/16 04:07:06;;;;;;;20.98;10.23;;;21.70;99.90;;;;;;4968458;28;20042;-75
2022/08/16 04:09:34;;;;;;;20.90;10.80;;;21.90;99.90;;;;;;4985358;28;20111;-75
2022/08/16 04:12:00;;;;;;;18.50;10.05;;;22.10;99.90;;;;;;4969541;28;20165;-74
2022/08/16 04:14:26;;;;;;;17.23;9.23;;;22.20;99.90;;;;;;4952906;28;20035;-72
2022/08/16 04:16:53;;;;;;;15.23;9.57;;;22.50;99.90;;;;;;4965260;28;20032;-74
2022/08/16 04:19:37;;;;;;;15.18;9.43;;;22.80;99.90;;;;;;4984414;28;20449;-74
2022/08/16 04:22:03;;;;;;;17.33;8.90;;;23.30;99.90;;;;;;4953889;28;20367;-76
2022/08/16 04:24:37;;;;;;;34.58;9.23;;;23.70;99.90;;;;;;4952846;28;20114;-74
2022/08/16 04:27:04;;;;;;;16.75;7.55;;;24.10;99.90;;;;;;4953904;28;20114;-75
2022/08/16 04:29:30;;;;;;;18.40;9.15;;;23.90;99.90;;;;;;4969092;28;20026;-75
2022/08/16 04:31:56;;;;;;;15.20;8.38;;;23.90;99.90;;;;;;4953222;28;20106;-75
2022/08/16 04:34:25;;;;;;;14.73;9.25;;;23.80;99.90;;;;;;4985419;28;20039;-75
2022/08/16 04:36:51;;;;;;;16.02;9.35;;;23.70;99.90;;;;;;4954337;28;20023;-75
2022/08/16 04:39:17;;;;;;;15.27;8.95;;;24.50;99.90;;;;;;4968983;28;20034;-75
2022/08/16 04:41:44;;;;;;;14.77;8.27;;;;;;;;;;4952445;28;20034;-74
2022/08/16 04:44:12;;;;;;;18.80;8.48;;;26.00;98.90;;;;;;4952612;29;20458;-75
2022/08/16 04:46:39;;;;;;;15.25;8.10;;;;;;;;;;4952929;28;20028;-75
2022/08/16 04:49:06;;;;;;;13.25;7.88;;;27.40;92.30;;;;;;4966836;28;20032;-75
2022/08/16 04:51:34;;;;;;;17.70;7.85;;;27.60;91.00;;;;;;4968161;28;20118;-75
2022/08/16 04:54:00;;;;;;;18.50;8.85;;;27.70;88.80;;;;;;4960727;28;20422;-75
2022/08/16 04:56:26;;;;;;;19.10;9.27;;;28.20;90.30;;;;;;4952342;28;20031;-75
2022/08/16 04:58:52;;;;;;;16.05;8.93;;;28.60;87.70;;;;;;4971166;28;20466;-75
2022/08/16 05:01:19;;;;;;;16.52;9.13;;;28.90;84.80;;;;;;4988907;28;20031;-74
2022/08/16 05:03:46;;;;;;;16.75;8.25;;;29.40;81.60;;;;;;4957655;28;20019;-75
2022/08/16 05:06:12;;;;;;;13.55;7.40;;;29.70;80.10;;;;;;4972732;28;20456;-76
2022/08/16 05:08:39;;;;;;;11.20;6.57;;;29.90;75.40;;;;;;4956128;29;20110;-75
2022/08/16 05:11:13;;;;;;;11.35;7.03;;;30.00;93.30;;;;;;4989143;28;20035;-75
2022/08/16 05:13:42;;;;;;;11.50;7.00;;;29.00;76.10;;;;;;4957033;28;20501;-73
2022/08/16 05:16:24;;;;;;;14.80;7.85;;;28.20;76.70;;;;;;4969393;28;20031;-75
2022/08/16 05:18:58;;;;;;;12.57;6.85;;;27.60;79.60;;;;;;4986371;28;20031;-75
2022/08/16 05:21:27;;;;;;;11.55;6.78;;;27.10;81.20;;;;;;4955319;29;20103;-75
2022/08/16 05:23:55;;;;;;;14.05;6.70;;;26.50;85.60;;;;;;4972329;28;20031;-75
2022/08/16 05:26:24;;;;;;;12.60;7.13;;;26.40;90.00;;;;;;4988782;28;20031;-74
2022/08/16 05:28:50;;;;;;;13.23;7.13;;;26.30;91.50;;;;;;4956008;29;20035;-75
2022/08/16 05:31:16;;;;;;;13.05;7.05;;;26.20;92.40;;;;;;4956429;28;20027;-74
2022/08/16 05:33:43;;;;;;;11.75;6.95;;;26.10;92.80;;;;;;4968643;28;20091;-75
2022/08/16 05:36:10;;;;;;;10.13;6.55;;;26.10;93.60;;;;;;4956091;29;20055;-75
2022/08/16 05:38:41;;;;;;;11.23;6.78;;;26.30;93.20;;;;;;4955905;28;20030;-75
2022/08/16 05:41:11;;;;;;;14.68;7.35;;;26.20;91.80;;;;;;4955406;29;20090;-75
2022/08/16 05:43:40;;;;;;;10.82;6.50;;;25.90;92.10;;;;;;4987754;28;20047;-75
2022/08/16 05:46:07;;;;;;;10.15;6.40;;;26.00;92.60;;;;;;4955727;28;20037;-75
2022/08/16 05:48:33;;;;;;;15.70;7.50;;;26.00;91.90;;;;;;4955398;28;20027;-75
2022/08/16 05:51:04;;;;;;;16.90;8.18;;;26.20;91.40;;;;;;4971151;28;20023;-75
2022/08/16 05:53:31;;;;;;;11.10;6.35;;;26.30;91.70;;;;;;4987374;28;20041;-74
2022/08/16 05:56:06;;;;;;;12.07;6.57;;;26.50;90.00;;;;;;4971394;28;20119;-75
2022/08/16 05:58:37;;;;;;;12.23;6.57;;;26.70;91.50;;;;;;4987150;28;20027;-72
2022/08/16 06:01:03;;;;;;;10.50;6.32;;;26.60;90.80;;;;;;4955418;28;20439;-75
2022/08/16 06:03:30;;;;;;;15.25;6.72;;;26.80;90.40;;;;;;4971770;28;20398;-75
2022/08/16 06:05:59;;;;;;;15.02;6.82;;;26.70;88.30;;;;;;4955494;29;20122;-74
2022/08/16 06:08:25;;;;;;;10.68;5.63;;;27.00;88.70;;;;;;4987930;28;20027;-74
2022/08/16 06:10:52;;;;;;;8.30;5.32;;;27.30;86.80;;;;;;4986459;28;20027;-75
2022/08/16 06:13:19;;;;;;;10.52;6.03;;;27.20;86.90;;;;;;4970576;28;20047;-75
2022/08/16 06:15:45;;;;;;;14.68;5.07;;;27.40;85.60;;;;;;4986537;28;20031;-75
2022/08/16 06:18:12;;;;;;;12.60;5.75;;;27.50;86.00;;;;;;4984157;28;20078;-74
2022/08/16 06:20:38;;;;;;;8.30;5.22;;;27.90;83.90;;;;;;4974894;28;20027;-75
2022/08/16 06:23:14;;;;;;;7.88;4.82;;;28.10;86.50;;;;;;4971418;28;20466;-66
2022/08/16 06:25:53;;;;;;;10.25;4.88;;;28.20;82.20;;;;;;4958550;28;20023;-63
2022/08/16 06:28:22;;;;;;;11.82;5.13;;;28.10;80.10;;;;;;4986795;28;20062;-62
2022/08/16 06:30:47;;;;;;;11.82;5.30;;;28.40;80.10;;;;;;4970666;28;20494;-63
2022/08/16 06:33:16;;;;;;;8.68;4.57;;;28.50;79.50;;;;;;4986663;28;20564;-62
2022/08/16 06:35:43;;;;;;;5.72;4.60;;;28.40;75.30;;;;;;4970750;28;20023;-75
2022/08/16 06:38:09;;;;;;;7.68;4.18;;;28.40;75.40;;;;;;4956002;28;20037;-63
2022/08/16 06:40:35;;;;;;;9.48;4.53;;;28.50;72.80;;;;;;4982183;28;20037;-73
2022/08/16 06:43:01;;;;;;;5.80;4.05;;;28.50;72.50;;;;;;4955775;28;20456;-75
2022/08/16 06:45:36;;;;;;;7.68;4.03;;;28.50;74.10;;;;;;4970098;28;20087;-62
2022/08/16 06:48:25;;;;;;;5.88;4.15;;;28.80;72.60;;;;;;4955996;28;20039;-64
2022/08/16 06:50:51;;;;;;;10.68;3.95;;;28.90;71.90;;;;;;4955947;29;20070;-74
2022/08/16 06:53:18;;;;;;;11.20;4.38;;;28.80;70.00;;;;;;4969828;28;20051;-74
2022/08/16 06:55:59;;;;;;;9.98;3.85;;;28.90;70.00;;;;;;4954401;28;20488;-75
2022/08/16 06:58:33;;;;;;;7.53;4.55;;;29.00;68.40;;;;;;4986508;28;20438;-74
2022/08/16 07:01:05;;;;;;;8.48;3.70;;;29.00;69.30;;;;;;4986404;28;20061;-74
2022/08/16 07:03:32;;;;;;;8.27;3.58;;;29.30;68.30;;;;;;4985893;28;20378;-73
2022/08/16 07:05:59;;;;;;;5.38;3.45;;;29.20;66.60;;;;;;4966723;28;20036;-74
2022/08/16 07:08:31;;;;;;;8.55;3.85;;;29.40;69.70;;;;;;4980990;28;20036;-70
2022/08/16 07:10:57;;;;;;;11.50;4.53;;;29.60;67.10;;;;;;4955427;28;20019;-70
2022/08/16 07:13:26;;;;;;;7.75;4.40;;;29.70;66.30;;;;;;4985871;28;20043;-72
2022/08/16 07:15:53;;;;;;;10.40;5.88;;;29.90;66.70;;;;;;4985320;28;20030;-73
2022/08/16 07:18:24;;;;;;;10.75;5.68;;;29.70;66.80;;;;;;4969431;28;20070;-73
2022/08/16 07:20:52;;;;;;;10.98;4.40;;;29.70;66.00;;;;;;4953171;28;20058;-72
2022/08/16 07:23:19;;;;;;;6.80;3.78;;;29.70;66.40;;;;;;4952993;28;20484;-72
2022/08/16 07:25:50;;;;;;;8.32;4.25;;;30.00;67.90;;;;;;4953674;29;20031;-72
2022/08/16 07:28:19;;;;;;;9.05;3.95;;;30.30;66.00;;;;;;4986402;28;20066;-72
2022/08/16 07:30:46;;;;;;;7.47;3.88;;;30.00;65.00;;;;;;4955460;29;20466;-73
2022/08/16 07:33:26;;;;;;;;;;;29.90;64.90;;;;;;4953427;29;20050;-71
2022/08/16 07:35:52;;;;;;;5.10;3.42;;;29.80;64.30;;;;;;4984901;28;19915;-73
2022/08/16 07:38:19;;;;;;;5.72;3.38;;;29.90;65.10;;;;;;4954575;28;20094;-73
2022/08/16 07:40:51;;;;;;;9.27;3.33;;;30.10;65.50;;;;;;4951823;29;20023;-72
2022/08/16 07:43:17;;;;;;;6.00;3.75;;;30.30;65.80;;;;;;4953688;28;20033;-71
2022/08/16 07:45:42;;;;;;;8.95;4.45;;;30.50;66.50;;;;;;4968740;28;20047;-68
2022/08/16 07:48:09;;;;;;;6.15;3.60;;;30.50;64.40;;;;;;4952733;28;20516;-73
2022/08/16 07:50:37;;;;;;;8.20;3.42;;;30.50;64.20;;;;;;4965816;28;20031;-74
2022/08/16 07:53:03;;;;;;;9.25;3.63;;;30.50;63.30;;;;;;4960670;28;20089;-65
2022/08/16 07:55:30;;;;;;;6.38;4.13;;;30.40;64.60;;;;;;4969239;28;20058;-72
2022/08/16 07:57:56;;;;;;;6.47;3.75;;;30.50;64.90;;;;;;4954313;28;20023;-75
2022/08/16 08:00:22;;;;;;;7.53;3.38;;;30.70;64.70;;;;;;4965302;28;20039;-67
2022/08/16 08:02:49;;;;;;;4.95;3.50;;;30.60;63.20;;;;;;4982437;28;20493;-73
2022/08/16 08:05:22;;;;;;;6.85;3.60;;;30.60;64.00;;;;;;4961576;28;20115;-71
2022/08/16 08:07:52;;;;;;;5.90;3.45;;;30.60;64.70;;;;;;4976603;28;20035;-74
2022/08/16 08:10:19;;;;;;;6.40;3.65;;;30.70;65.10;;;;;;4965362;28;20012;-72
2022/08/16 08:12:51;;;;;;;7.05;3.40;;;30.50;65.10;;;;;;4977144;28;20486;-75
2022/08/16 08:15:18;;;;;;;5.75;3.40;;;30.60;65.40;;;;;;4984387;28;20047;-74
2022/08/16 08:17:44;;;;;;;7.35;3.20;;;30.60;64.20;;;;;;4968075;28;20118;-72
2022/08/16 08:20:26;;;;;;;;;;;30.90;63.50;;;;;;4983419;28;20114;-74
2022/08/16 08:22:59;;;;;;;7.20;3.85;;;30.90;64.80;;;;;;4968323;28;19910;-70
2022/08/16 08:25:26;;;;;;;5.97;3.78;;;30.80;65.50;;;;;;4980031;28;20028;-70
2022/08/16 08:27:52;;;;;;;6.97;3.47;;;30.70;63.70;;;;;;4968770;28;20386;-75
2022/08/16 08:30:19;;;;;;;8.20;3.67;;;30.60;63.70;;;;;;4985419;28;20034;-75
2022/08/16 08:32:46;;;;;;;6.57;3.33;;;30.70;64.40;;;;;;4968994;28;20019;-75
2022/08/16 08:35:12;;;;;;;4.93;3.45;;;30.80;65.70;;;;;;4953026;29;20125;-74
2022/08/16 08:37:39;;;;;;;9.32;3.30;;;;;;;;;;4968444;28;20026;-75
2022/08/16 08:40:09;;;;;;;6.25;3.28;;;;;;;;;;4951737;28;20509;-67
2022/08/16 08:42:36;;;;;;;8.88;3.47;;;31.20;64.60;;;;;;4953040;28;20050;-73
2022/08/16 08:45:04;;;;;;;7.32;2.85;;;30.90;65.10;;;;;;4967375;28;20186;-75
2022/08/16 08:47:30;;;;;;;5.50;2.97;;;30.90;64.70;;;;;;4984450;28;20062;-75
2022/08/16 08:49:57;;;;;;;4.57;3.03;;;30.90;63.80;;;;;;4968740;28;20497;-75
2022/08/16 08:52:25;;;;;;;7.95;2.88;;;30.90;64.30;;;;;;4983434;28;20433;-75
2022/08/16 08:54:51;;;;;;;6.65;3.88;;;31.20;64.50;;;;;;4965172;28;20509;-75
2022/08/16 08:57:17;;;;;;;6.13;3.38;;;31.40;66.90;;;;;;4984716;28;20028;-74
2022/08/16 09:00:17;;;;;;;6.68;3.38;;;31.40;64.10;;;;;;4983948;28;20127;-75
2022/08/16 09:02:44;;;;;;;6.40;2.75;;;31.30;65.40;;;;;;4953457;28;20505;-75
2022/08/16 09:05:12;;;;;;;6.20;3.10;;;31.30;65.70;;;;;;4968127;28;20034;-76
2022/08/16 09:07:39;;;;;;;5.93;3.17;;;31.30;64.50;;;;;;4951531;29;20035;-74
2022/08/16 09:10:07;;;;;;;5.80;3.00;;;31.50;65.40;;;;;;4952036;29;20031;-75
2022/08/16 09:12:37;;;;;;;4.85;2.97;;;31.30;65.20;;;;;;4953518;28;20027;-75
2022/08/16 09:15:10;;;;;;;7.32;3.08;;;31.30;65.80;;;;;;4952322;28;20047;-63
2022/08/16 09:17:36;;;;;;;4.88;3.05;;;31.20;65.80;;;;;;4967990;28;20027;-74
2022/08/16 09:20:05;;;;;;;8.27;3.55;;;31.20;66.60;;;;;;4952139;29;20035;-75
2022/08/16 09:22:32;;;;;;;5.38;3.03;;;31.50;66.30;;;;;;4953054;28;20069;-73
2022/08/16 09:24:58;;;;;;;7.10;3.50;;;31.80;66.70;;;;;;4965134;28;20028;-75
2022/08/16 09:27:25;;;;;;;8.13;3.97;;;32.00;64.90;;;;;;4964293;28;20036;-75
2022/08/16 09:29:52;;;;;;;5.20;2.60;;;31.70;64.50;;;;;;4967590;28;20046;-72
2022/08/16 09:32:18;;;;;;;9.00;3.15;;;31.80;64.50;;;;;;4953114;28;20035;-74
2022/08/16 09:34:45;;;;;;;5.07;2.78;;;32.00;64.50;;;;;;4951348;28;20094;-73
2022/08/16 09:37:14;;;;;;;6.13;3.35;;;32.10;64.10;;;;;;4952240;28;20106;-72
2022/08/16 09:39:43;;;;;;;5.95;3.00;;;32.10;63.40;;;;;;4952521;28;20041;-71
2022/08/16 09:42:09;;;;;;;3.80;2.70;;;31.80;61.50;;;;;;4952884;28;20506;-72
2022/08/16 09:44:35;;;;;;;6.05;3.35;;;31.80;62.00;;;;;;4953063;28;20126;-73
2022/08/16 09:47:02;;;;;;;4.68;2.88;;;31.80;62.50;;;;;;4955186;28;20143;-74
2022/08/16 09:49:29;;;;;;;3.40;2.20;;;32.10;63.70;;;;;;4955482;28;20077;-74
2022/08/16 09:51:55;;;;;;;8.60;2.45;;;32.00;61.70;;;;;;4956454;28;20027;-70
2022/08/16 09:54:23;;;;;;;3.30;2.42;;;32.20;63.70;;;;;;4956495;28;20046;-75
2022/08/16 09:56:50;;;;;;;6.90;2.42;;;32.00;61.50;;;;;;4955844;28;20513;-74
2022/08/16 09:59:16;;;;;;;3.78;2.28;;;31.80;63.30;;;;;;4955979;28;20027;-71
2022/08/16 10:01:43;;;;;;;5.65;2.78;;;31.80;64.20;;;;;;4956077;28;20027;-74
2022/08/16 10:04:10;;;;;;;2.80;2.33;;;32.00;63.20;;;;;;4956036;28;20053;-73
2022/08/16 10:06:37;;;;;;;4.25;2.72;;;31.80;62.90;;;;;;4955509;28;20023;-66
2022/08/16 10:09:07;;;;;;;2.85;2.53;;;32.00;65.00;;;;;;4954521;28;20039;-69
2022/08/16 10:14:18;;;;;;;6.60;3.05;;;32.00;64.20;;;;;;4955919;28;20409;-75
2022/08/16 10:16:44;;;;;;;5.30;3.08;;;32.20;62.80;;;;;;4956489;28;20114;-74
2022/08/16 10:19:12;;;;;;;3.95;2.67;;;32.20;64.30;;;;;;4956181;28;20561;-74
2022/08/16 10:21:38;;;;;;;6.18;2.70;;;32.30;64.20;;;;;;4956117;28;20521;-73
2022/08/16 10:24:06;;;;;;;8.93;2.75;;;32.00;63.00;;;;;;4955043;28;20484;-73
2022/08/16 10:26:32;;;;;;;4.55;2.67;;;32.30;63.60;;;;;;4965934;28;20611;-74
2022/08/16 10:28:59;;;;;;;5.40;2.88;;;32.00;64.10;;;;;;4944528;29;20043;-73
2022/08/16 10:31:25;;;;;;;5.47;3.13;;;32.20;64.90;;;;;;4954711;28;20352;-75
2022/08/16 10:33:51;;;;;;;5.53;3.17;;;32.10;64.60;;;;;;4958128;28;20058;-75
2022/08/16 10:36:17;;;;;;;6.53;2.75;;;32.10;63.20;;;;;;4951710;29;20039;-74
2022/08/16 10:38:43;;;;;;;6.28;3.13;;;31.90;64.10;;;;;;4954931;28;20029;-75
2022/08/16 10:41:10;;;;;;;4.70;2.95;;;31.80;64.60;;;;;;4955368;28;20093;-74
2022/08/16 10:43:37;;;;;;;5.63;3.30;;;31.90;65.90;;;;;;4959950;28;20098;-73
2022/08/16 10:46:06;;;;;;;8.73;4.47;;;31.70;65.20;;;;;;4956194;28;20126;-75
2022/08/16 10:48:32;;;;;;;5.43;3.10;;;31.80;66.90;;;;;;4967555;28;20035;-75
2022/08/16 10:50:58;;;;;;;6.88;3.22;;;32.10;65.80;;;;;;4970181;28;20115;-75
2022/08/16 10:53:29;;;;;;;6.97;2.88;;;31.80;65.40;;;;;;4954522;28;20046;-72
2022/08/16 10:55:54;;;;;;;8.00;3.45;;;32.00;65.00;;;;;;4955004;28;20129;-73
2022/08/16 10:58:20;;;;;;;6.28;3.60;;;32.00;65.70;;;;;;4955772;28;20102;-74
2022/08/16 11:00:48;;;;;;;5.38;3.30;;;31.90;65.30;;;;;;4966012;28;20016;-74
2022/08/16 11:03:14;;;;;;;5.63;3.22;;;32.00;65.90;;;;;;4955038;28;20383;-74
2022/08/16 11:05:42;;;;;;;6.47;3.08;;;31.60;65.10;;;;;;4956124;28;20365;-73
2022/08/16 11:08:10;;;;;;;5.95;3.28;;;;;;;;;;4955548;28;20027;-74
2022/08/16 11:10:40;;;;;;;7.35;3.55;;;31.30;64.20;;;;;;4955850;28;20035;-75
2022/08/16 11:13:08;;;;;;;9.45;3.78;;;31.30;66.60;;;;;;4955881;28;20039;-75
2022/08/16 11:15:35;;;;;;;9.38;4.22;;;31.10;64.90;;;;;;4955899;28;20456;-74
2022/08/16 11:18:02;;;;;;;4.55;2.80;;;31.20;65.60;;;;;;4955663;28;20023;-76
2022/08/16 11:20:28;;;;;;;9.93;4.20;;;31.30;64.80;;;;;;4955196;28;20106;-75
2022/08/16 11:22:55;;;;;;;7.35;3.20;;;31.40;64.10;;;;;;4954958;28;20415;-75
2022/08/16 11:25:24;;;;;;;8.95;4.20;;;31.50;65.50;;;;;;4954848;28;20039;-74
2022/08/16 11:27:51;;;;;;;6.45;3.67;;;31.60;64.00;;;;;;4954808;28;20109;-74
2022/08/16 11:30:18;;;;;;;7.80;3.28;;;31.60;64.20;;;;;;4954145;28;20023;-73
2022/08/16 11:32:43;;;;;;;4.07;2.90;;;31.70;63.50;;;;;;4954073;28;20106;-73
2022/08/16 11:35:17;;;;;;;6.55;3.20;;;31.60;64.30;;;;;;4954510;29;20123;-73
2022/08/16 11:37:49;;;;;;;8.10;3.70;;;31.80;64.40;;;;;;4953805;28;20478;-70
2022/08/16 11:40:15;;;;;;;6.72;3.33;;;32.00;77.80;;;;;;4952622;28;20058;-75
2022/08/16 11:42:41;;;;;;;5.30;3.35;;;32.10;63.70;;;;;;4954089;28;20055;-74
2022/08/16 11:45:08;;;;;;;4.18;3.20;;;32.10;63.10;;;;;;4953917;28;20129;-71
2022/08/16 11:47:34;;;;;;;5.35;3.47;;;32.30;64.90;;;;;;4953881;28;20119;-75
2022/08/16 11:50:00;;;;;;;5.90;3.05;;;32.20;63.00;;;;;;4951648;28;20110;-73
2022/08/16 11:52:26;;;;;;;6.32;2.90;;;32.10;62.50;;;;;;4953751;28;20035;-73
2022/08/16 11:54:52;;;;;;;7.40;4.00;;;32.40;62.60;;;;;;4953882;28;20039;-73
2022/08/16 11:57:17;;;;;;;6.90;2.50;;;32.60;69.50;;;;;;4951995;28;20034;-73
2022/08/16 11:59:43;;;;;;;4.88;2.63;;;32.60;61.90;;;;;;4953003;28;20636;-74
2022/08/16 12:02:09;;;;;;;6.97;3.05;;;32.70;63.00;;;;;;4953849;28;20023;-75
2022/08/16 12:04:35;;;;;;;9.18;3.80;;;;;;;;;;4953461;28;20122;-75
2022/08/16 12:07:04;;;;;;;6.53;2.90;;;33.00;62.30;;;;;;4953560;29;20019;-75
2022/08/16 12:09:30;;;;;;;5.28;2.88;;;;;;;;;;4953605;28;20027;-72
2022/08/16 12:11:58;;;;;;;5.63;3.15;;;34.90;62.90;;;;;;4953366;28;20102;-75
2022/08/16 12:14:24;;;;;;;4.53;3.03;;;33.20;62.70;;;;;;4953560;28;20039;-74
2022/08/16 12:16:53;;;;;;;7.40;3.45;;;33.10;62.00;;;;;;4949532;28;20452;-74
2022/08/16 12:19:19;;;;;;;4.47;2.85;;;33.00;64.10;;;;;;4948567;28;20697;-73
2022/08/16 12:21:45;;;;;;;7.32;3.35;;;32.70;61.60;;;;;;4950387;28;20082;-73
2022/08/16 12:24:11;;;;;;;6.93;3.28;;;32.80;63.40;;;;;;4952559;28;20035;-74
2022/08/16 12:26:37;;;;;;;5.28;2.70;;;32.60;62.60;;;;;;4951809;28;20377;-74
2022/08/16 12:29:03;;;;;;;6.22;3.13;;;32.70;63.80;;;;;;4952043;28;20038;-74
2022/08/16 12:31:29;;;;;;;5.70;3.63;;;32.90;63.50;;;;;;4950476;28;20381;-76
2022/08/16 12:33:56;;;;;;;4.65;2.78;;;32.90;62.90;;;;;;4952754;28;20638;-76
2022/08/16 12:36:22;;;;;;;5.28;3.05;;;32.70;63.40;;;;;;4949461;28;20478;-76
2022/08/16 12:38:48;;;;;;;10.10;3.25;;;32.80;64.20;;;;;;4952459;28;20062;-70
2022/08/16 12:41:14;;;;;;;8.23;3.05;;;33.00;66.00;;;;;;4952116;28;20475;-63
2022/08/16 12:43:40;;;;;;;5.10;3.35;;;33.10;70.30;;;;;;4951727;28;20503;-66
2022/08/16 12:46:09;;;;;;;5.78;3.25;;;33.30;65.70;;;;;;4953121;28;20043;-74
2022/08/16 12:51:22;;;;;;;6.13;3.10;;;33.00;67.50;;;;;;4953627;28;20023;-70
2022/08/16 12:53:50;;;;;;;4.78;2.72;;;32.70;64.60;;;;;;4952889;28;20035;-69